createdAt,value
2018-06-24T00:00:20.662Z,84.50
2018-06-24T00:02:48.755Z,84.80
2018-06-24T00:05:16.707Z,84.90
2018-06-24T00:07:44.633Z,84.90
2018-06-24T00:10:12.573Z,85.00
2018-06-24T00:12:40.475Z,84.90
2018-06-24T00:15:08.429Z,84.90
2018-06-24T00:17:36.245Z,84.80
2018-06-24T00:20:04.348Z,85.00
2018-06-24T00:22:32.238Z,85.20
2018-06-24T00:25:00.166Z,85.30
2018-06-24T00:27:28.287Z,85.00
2018-06-24T00:29:56.255Z,85.20
2018-06-24T00:32:24.115Z,85.40
2018-06-24T00:34:52.010Z,85.50
2018-06-24T00:37:19.939Z,85.80
2018-06-24T00:39:47.784Z,85.60
2018-06-24T00:42:15.816Z,86.00
2018-06-24T00:44:43.804Z,86.10
2018-06-24T00:47:11.740Z,85.80
2018-06-24T00:49:39.727Z,85.70
2018-06-24T00:52:07.574Z,85.40
2018-06-24T00:54:35.483Z,85.40
2018-06-24T00:57:03.507Z,85.40
2018-06-24T00:59:42.684Z,85.00
2018-06-24T01:02:10.539Z,85.40
2018-06-24T01:04:38.382Z,85.40
2018-06-24T01:07:08.498Z,84.50
2018-06-24T01:09:36.429Z,83.60
2018-06-24T01:12:04.402Z,83.10
2018-06-24T01:14:32.200Z,82.90
2018-06-24T01:17:00.101Z,83.00
2018-06-24T01:19:29.911Z,82.70
2018-06-24T01:21:57.867Z,82.10
2018-06-24T01:24:25.744Z,81.90
2018-06-24T01:26:53.546Z,81.20
2018-06-24T01:29:21.504Z,81.90
2018-06-24T01:31:49.302Z,81.90
2018-06-24T01:34:17.201Z,81.20
2018-06-24T01:36:45.132Z,80.60
2018-06-24T01:39:13.124Z,81.90
2018-06-24T01:41:41.024Z,81.40
2018-06-24T01:46:36.545Z,80.10
2018-06-24T01:49:04.330Z,78.90
2018-06-24T01:51:32.248Z,79.40
2018-06-24T01:54:00.104Z,79.40
2018-06-24T01:56:27.896Z,79.60
2018-06-24T01:58:55.734Z,79.40
2018-06-24T02:01:23.701Z,79.40
2018-06-24T02:03:51.592Z,80.00
2018-06-24T02:06:19.531Z,80.10
2018-06-24T02:08:47.443Z,80.60
2018-06-24T02:11:15.282Z,80.60
2018-06-24T02:13:43.595Z,80.10
2018-06-24T02:16:11.503Z,80.70
2018-06-24T02:18:39.420Z,80.70
2018-06-24T02:21:07.449Z,80.80
2018-06-24T02:23:35.441Z,80.60
2018-06-24T02:26:03.438Z,79.90
2018-06-24T02:28:31.328Z,80.10
2018-06-24T02:30:59.164Z,80.10
2018-06-24T02:33:27.017Z,80.10
2018-06-24T02:35:54.905Z,80.10
2018-06-24T02:38:22.925Z,80.10
2018-06-24T02:40:50.934Z,80.00
2018-06-24T02:43:18.870Z,79.70
2018-06-24T02:45:46.773Z,79.30
2018-06-24T02:48:14.809Z,79.00
2018-06-24T02:50:42.870Z,79.00
2018-06-24T02:53:10.866Z,79.20
2018-06-24T02:55:38.758Z,79.40
2018-06-24T02:58:06.690Z,79.80
2018-06-24T03:00:34.603Z,78.40
2018-06-24T03:03:02.423Z,79.10
2018-06-24T03:05:30.281Z,80.00
2018-06-24T03:07:58.054Z,79.20
2018-06-24T03:10:25.888Z,78.60
2018-06-24T03:12:53.679Z,78.20
2018-06-24T03:15:21.642Z,78.50
2018-06-24T03:17:49.528Z,78.50
2018-06-24T03:20:17.412Z,78.70
2018-06-24T03:22:45.684Z,78.80
2018-06-24T03:25:13.690Z,78.60
2018-06-24T03:27:41.545Z,78.70
2018-06-24T03:30:09.496Z,78.70
2018-06-24T03:32:37.320Z,78.10
2018-06-24T03:35:05.348Z,78.00
2018-06-24T03:37:33.273Z,77.80
2018-06-24T03:40:01.144Z,77.60
2018-06-24T03:42:29.185Z,78.40
2018-06-24T03:44:57.046Z,78.10
2018-06-24T03:47:25.060Z,79.10
2018-06-24T03:49:52.947Z,77.30
2018-06-24T03:52:20.909Z,77.60
2018-06-24T03:54:48.871Z,76.60
2018-06-24T03:57:16.983Z,76.20
2018-06-24T03:59:44.824Z,76.40
2018-06-24T04:02:12.750Z,76.20
2018-06-24T04:04:40.756Z,76.40
2018-06-24T04:07:08.711Z,75.60
2018-06-24T04:09:36.707Z,75.80
2018-06-24T04:12:04.698Z,76.00
2018-06-24T04:14:32.670Z,75.70
2018-06-24T04:17:00.532Z,76.10
2018-06-24T04:19:28.523Z,76.80
2018-06-24T04:24:24.288Z,77.20
2018-06-24T04:26:52.238Z,76.50
2018-06-24T04:29:20.242Z,75.80
2018-06-24T04:31:48.126Z,75.50
2018-06-24T04:34:16.074Z,75.60
2018-06-24T04:36:43.908Z,75.20
2018-06-24T04:39:11.802Z,74.00
2018-06-24T04:41:39.785Z,73.80
2018-06-24T04:44:08.709Z,73.50
2018-06-24T04:46:36.625Z,74.10
2018-06-24T04:49:04.540Z,73.00
2018-06-24T04:51:32.461Z,73.50
2018-06-24T04:54:00.233Z,72.70
2018-06-24T04:56:28.108Z,73.40
2018-06-24T04:58:56.028Z,72.60
2018-06-24T05:01:23.826Z,73.20
2018-06-24T05:03:51.805Z,72.70
2018-06-24T05:06:19.732Z,72.10
2018-06-24T05:08:47.738Z,71.30
2018-06-24T05:11:15.742Z,70.50
2018-06-24T05:13:43.696Z,70.50
2018-06-24T05:16:11.612Z,69.30
2018-06-24T05:18:39.526Z,68.80
2018-06-24T05:21:07.529Z,67.20
2018-06-24T05:23:35.500Z,65.90
2018-06-24T05:26:03.704Z,65.90
2018-06-24T05:28:31.633Z,65.60
2018-06-24T05:30:59.609Z,64.10
2018-06-24T05:33:27.573Z,64.30
2018-06-24T05:35:55.472Z,64.30
2018-06-24T05:38:23.432Z,63.10
2018-06-24T05:40:51.402Z,62.10
2018-06-24T05:43:19.418Z,63.20
2018-06-24T05:45:47.297Z,64.00
2018-06-24T05:48:15.144Z,64.20
2018-06-24T05:50:43.005Z,63.60
2018-06-24T05:53:10.995Z,64.50
2018-06-24T05:55:38.846Z,63.50
2018-06-24T05:58:06.702Z,63.00
2018-06-24T06:00:34.526Z,63.20
2018-06-24T06:03:02.539Z,62.40
2018-06-24T06:05:30.441Z,64.50
2018-06-24T06:07:58.500Z,63.50
2018-06-24T06:10:26.493Z,63.50
2018-06-24T06:12:54.381Z,64.50
2018-06-24T06:15:22.305Z,65.00
2018-06-24T06:17:50.240Z,65.30
2018-06-24T06:20:18.179Z,65.60
2018-06-24T06:22:46.047Z,65.30
2018-06-24T06:25:14.107Z,65.90
2018-06-24T06:27:41.971Z,65.70
2018-06-24T06:30:09.949Z,65.30
2018-06-24T06:32:37.803Z,65.00
2018-06-24T06:37:33.808Z,65.60
2018-06-24T06:40:01.651Z,65.00
2018-06-24T06:42:29.684Z,65.30
2018-06-24T06:44:57.833Z,65.50
2018-06-24T06:47:25.563Z,63.50
2018-06-24T06:49:53.503Z,63.20
2018-06-24T06:52:21.476Z,63.90
2018-06-24T06:54:49.506Z,63.10
2018-06-24T06:57:17.575Z,61.60
2018-06-24T06:59:46.622Z,61.70
2018-06-24T07:02:14.625Z,61.00
2018-06-24T07:07:10.328Z,60.30
2018-06-24T07:09:38.334Z,60.20
2018-06-24T07:12:06.455Z,59.40
2018-06-24T07:14:34.497Z,59.20
2018-06-24T07:17:02.567Z,59.60
2018-06-24T07:19:30.447Z,59.70
2018-06-24T07:21:58.383Z,58.80
2018-06-24T07:24:26.491Z,59.40
2018-06-24T07:26:54.626Z,58.70
2018-06-24T07:29:22.580Z,58.70
2018-06-24T07:31:50.666Z,58.20
2018-06-24T07:34:19.215Z,57.00
2018-06-24T07:39:16.859Z,56.10
2018-06-24T07:41:47.289Z,55.90
2018-06-24T07:44:15.809Z,56.20
2018-06-24T07:46:44.270Z,56.00
2018-06-24T07:49:12.374Z,55.50
2018-06-24T07:51:40.515Z,56.30
2018-06-24T07:54:11.401Z,55.70
2018-06-24T07:59:07.636Z,56.40
2018-06-24T08:01:35.785Z,57.00
2018-06-24T08:04:04.005Z,56.90
2018-06-24T08:06:32.384Z,55.90
2018-06-24T08:09:02.125Z,55.70
2018-06-24T08:11:30.175Z,57.60
2018-06-24T08:13:58.209Z,56.30
2018-06-24T08:16:26.247Z,55.40
2018-06-24T08:18:54.831Z,54.00
2018-06-24T08:21:22.893Z,51.60
2018-06-24T08:23:51.189Z,49.70
2018-06-24T08:26:19.335Z,49.70
2018-06-24T08:28:48.254Z,49.60
2018-06-24T08:31:17.652Z,48.00
2018-06-24T08:33:46.559Z,48.20
2018-06-24T08:36:15.315Z,47.20
2018-06-24T08:38:43.249Z,46.60
2018-06-24T08:43:50.374Z,47.10
2018-06-24T08:46:31.549Z,46.10
2018-06-24T08:49:08.767Z,46.80
2018-06-24T08:55:25.348Z,47.50
2018-06-24T08:57:53.358Z,47.20
2018-06-24T09:00:21.478Z,45.30
2018-06-24T09:11:55.215Z,46.90
2018-06-24T09:26:50.616Z,48.20
2018-06-24T09:29:33.424Z,46.70
2018-06-24T09:32:02.768Z,46.10
2018-06-24T09:34:42.697Z,47.10
2018-06-24T09:37:27.771Z,46.90
2018-06-24T09:40:02.376Z,46.50
2018-06-24T09:42:30.933Z,45.80
2018-06-24T09:44:58.900Z,46.50
2018-06-24T09:48:08.277Z,45.70
2018-06-24T09:53:31.171Z,46.80
2018-06-24T09:55:59.294Z,48.00
2018-06-24T09:58:27.737Z,47.50
2018-06-24T10:00:57.281Z,47.90
2018-06-24T10:03:25.427Z,47.90
2018-06-24T10:05:53.452Z,47.60
2018-06-24T10:08:21.570Z,48.20
2018-06-24T10:10:49.695Z,47.30
2018-06-24T10:13:18.936Z,46.70
2018-06-24T10:15:48.244Z,46.80
2018-06-24T10:18:17.523Z,44.70
2018-06-24T10:20:51.012Z,44.30
2018-06-24T10:23:20.191Z,43.60
2018-06-24T10:25:48.330Z,43.60
2018-06-24T10:28:20.947Z,43.10
2018-06-24T10:30:49.763Z,43.90
2018-06-24T10:33:18.911Z,44.00
2018-06-24T10:35:53.558Z,44.30
2018-06-24T10:38:21.564Z,44.10
2018-06-24T10:40:49.919Z,44.90
2018-06-24T10:43:18.574Z,44.10
2018-06-24T10:45:47.719Z,44.30
2018-06-24T10:48:17.456Z,45.00
2018-06-24T10:50:46.967Z,45.40
2018-06-24T10:53:15.912Z,44.40
2018-06-24T10:55:44.429Z,44.40
2018-06-24T10:58:12.460Z,43.30
2018-06-24T11:00:40.466Z,42.50
2018-06-24T11:03:08.927Z,42.10
2018-06-24T11:05:38.515Z,41.90
2018-06-24T11:08:06.619Z,40.80
2018-06-24T11:10:34.830Z,39.90
2018-06-24T11:13:04.600Z,41.20
2018-06-24T11:15:32.594Z,41.60
2018-06-24T11:18:00.844Z,41.50
2018-06-24T11:20:28.844Z,39.90
2018-06-24T11:22:57.382Z,39.90
2018-06-24T11:25:25.935Z,41.50
2018-06-24T11:27:54.231Z,40.60
2018-06-24T11:30:22.459Z,40.20
2018-06-24T11:32:50.582Z,40.20
2018-06-24T11:35:18.967Z,39.90
2018-06-24T11:40:46.220Z,41.50
2018-06-24T11:43:15.873Z,41.00
2018-06-24T11:45:44.575Z,42.50
2018-06-24T11:48:12.603Z,41.10
2018-06-24T11:50:40.460Z,42.40
2018-06-24T11:53:08.553Z,42.10
2018-06-24T11:55:37.520Z,42.90
2018-06-24T11:58:05.643Z,40.80
2018-06-24T12:00:35.071Z,40.90
2018-06-24T12:03:03.182Z,42.50
2018-06-24T12:05:32.273Z,42.10
2018-06-24T12:08:00.357Z,40.90
2018-06-24T12:10:28.392Z,41.10
2018-06-24T12:12:56.775Z,41.20
2018-06-24T12:15:25.914Z,41.90
2018-06-24T12:17:54.056Z,42.10
2018-06-24T12:20:22.250Z,43.00
2018-06-24T12:22:50.827Z,42.40
2018-06-24T12:25:19.788Z,42.80
2018-06-24T12:27:48.465Z,41.40
2018-06-24T12:30:18.786Z,42.50
2018-06-24T12:32:48.305Z,42.10
2018-06-24T12:35:17.891Z,42.70
2018-06-24T12:37:48.433Z,43.10
2018-06-24T12:40:33.344Z,43.60
2018-06-24T12:43:03.092Z,42.50
2018-06-24T12:45:31.481Z,43.40
2018-06-24T12:48:00.219Z,43.70
2018-06-24T12:50:28.813Z,43.80
2018-06-24T12:52:57.885Z,42.70
2018-06-24T12:55:26.050Z,44.60
2018-06-24T12:57:54.663Z,44.90
2018-06-24T13:00:23.162Z,45.80
2018-06-24T13:02:51.249Z,45.20
2018-06-24T13:05:19.731Z,44.60
2018-06-24T13:07:48.459Z,44.60
2018-06-24T13:10:17.807Z,44.40
2018-06-24T13:12:47.545Z,45.30
2018-06-24T13:15:16.691Z,44.30
2018-06-24T13:17:46.785Z,45.60
2018-06-24T13:20:15.824Z,45.80
2018-06-24T13:22:45.259Z,44.50
2018-06-24T13:25:13.354Z,44.90
2018-06-24T13:27:41.671Z,45.10
2018-06-24T13:30:09.865Z,45.40
2018-06-24T13:32:38.967Z,45.90
2018-06-24T13:35:08.135Z,45.30
2018-06-24T13:37:36.441Z,45.50
2018-06-24T13:40:07.356Z,44.90
2018-06-24T13:42:35.322Z,46.20
2018-06-24T13:45:05.768Z,45.10
2018-06-24T13:47:34.222Z,44.80
2018-06-24T13:50:02.305Z,45.70
2018-06-24T13:52:33.745Z,44.60
2018-06-24T13:55:02.348Z,44.60
2018-06-24T13:57:30.727Z,44.10
2018-06-24T13:59:58.904Z,44.70
2018-06-24T14:02:27.670Z,44.50
2018-06-24T14:04:57.186Z,43.50
2018-06-24T14:07:26.354Z,42.90
2018-06-24T14:09:54.769Z,42.90
2018-06-24T14:12:22.811Z,42.00
2018-06-24T14:14:51.794Z,41.70
2018-06-24T14:17:20.916Z,42.60
2018-06-24T14:19:49.486Z,42.70
2018-06-24T14:22:19.490Z,42.30
2018-06-24T14:24:48.486Z,42.40
2018-06-24T14:27:17.735Z,42.60
2018-06-24T14:32:19.024Z,42.40
2018-06-24T14:34:49.529Z,42.20
2018-06-24T14:37:19.735Z,42.40
2018-06-24T14:39:48.473Z,42.80
2018-06-24T14:42:20.608Z,42.10
2018-06-24T14:44:50.291Z,42.50
2018-06-24T14:49:46.773Z,43.20
2018-06-24T14:52:15.750Z,43.20
2018-06-24T14:54:44.888Z,43.70
2018-06-24T14:59:48.368Z,43.10
2018-06-24T15:02:18.253Z,42.90
2018-06-24T15:04:52.238Z,42.20
2018-06-24T15:07:24.574Z,42.50
2018-06-24T15:09:52.915Z,41.70
2018-06-24T15:12:21.216Z,42.60
2018-06-24T15:14:50.945Z,43.60
2018-06-24T15:17:24.819Z,43.20
2018-06-24T15:19:52.755Z,44.30
2018-06-24T15:22:21.754Z,44.00
2018-06-24T15:24:51.475Z,43.40
2018-06-24T15:27:21.203Z,42.30
2018-06-24T15:29:50.710Z,41.90
2018-06-24T15:32:19.860Z,42.00
2018-06-24T15:34:51.091Z,42.20
2018-06-24T15:39:48.936Z,42.30
2018-06-24T15:42:18.650Z,43.10
2018-06-24T15:44:51.801Z,43.40
2018-06-24T15:47:31.610Z,43.20
2018-06-24T15:52:41.689Z,43.10
2018-06-24T15:55:17.302Z,44.00
2018-06-24T15:57:51.334Z,44.40
2018-06-24T16:00:21.686Z,44.40
2018-06-24T16:02:50.619Z,45.30
2018-06-24T16:05:19.063Z,45.60
2018-06-24T16:07:48.252Z,45.90
2018-06-24T16:10:18.060Z,46.20
2018-06-24T16:12:47.038Z,45.90
2018-06-24T16:15:19.422Z,45.20
2018-06-24T16:17:58.905Z,46.10
2018-06-24T16:20:31.085Z,45.90
2018-06-24T16:23:04.124Z,46.70
2018-06-24T16:25:35.475Z,46.20
2018-06-24T16:28:08.245Z,46.80
2018-06-24T16:30:39.653Z,46.50
2018-06-24T16:33:16.227Z,47.40
2018-06-24T16:35:47.859Z,47.60
2018-06-24T16:38:19.092Z,48.10
2018-06-24T16:40:48.292Z,48.10
2018-06-24T16:43:16.594Z,48.00
2018-06-24T16:45:46.317Z,48.80
2018-06-24T16:48:16.392Z,49.20
2018-06-24T16:50:46.218Z,49.70
2018-06-24T16:53:14.716Z,49.50
2018-06-24T16:55:43.196Z,50.50
2018-06-24T16:58:12.530Z,50.90
2018-06-24T17:00:40.697Z,50.60
2018-06-24T17:03:08.871Z,50.00
2018-06-24T17:05:37.195Z,51.30
2018-06-24T17:08:05.974Z,52.20
2018-06-24T17:13:01.946Z,52.70
2018-06-24T17:15:30.161Z,53.20
2018-06-24T17:18:08.146Z,54.80
2018-06-24T17:20:42.754Z,56.20
2018-06-24T17:23:10.885Z,57.40
2018-06-24T17:25:40.175Z,57.90
2018-06-24T17:28:08.452Z,58.60
2018-06-24T17:30:37.294Z,58.80
2018-06-24T17:33:05.679Z,59.10
2018-06-24T17:35:33.823Z,58.40
2018-06-24T17:38:01.836Z,59.20
2018-06-24T17:40:30.273Z,58.80
2018-06-24T17:42:58.523Z,59.20
2018-06-24T17:45:26.899Z,59.80
2018-06-24T17:47:55.398Z,59.50
2018-06-24T17:50:23.566Z,62.00
2018-06-24T17:52:51.879Z,61.20
2018-06-24T17:55:20.341Z,62.00
2018-06-24T17:57:48.525Z,63.20
2018-06-24T18:00:17.503Z,63.00
2018-06-24T18:02:48.460Z,64.00
2018-06-24T18:05:18.195Z,64.10
2018-06-24T18:07:47.768Z,64.60
2018-06-24T18:10:17.271Z,65.90
2018-06-24T18:12:46.197Z,66.80
2018-06-24T18:15:16.085Z,67.50
2018-06-24T18:17:45.848Z,67.20
2018-06-24T18:20:16.834Z,67.80
2018-06-24T18:22:45.529Z,68.30
2018-06-24T18:25:14.231Z,69.10
2018-06-24T18:27:42.498Z,68.70
2018-06-24T18:30:11.782Z,69.90
2018-06-24T18:32:39.846Z,70.30
2018-06-24T18:35:08.382Z,70.30
2018-06-24T18:37:36.669Z,69.00
2018-06-24T18:40:04.807Z,69.90
2018-06-24T18:42:33.427Z,68.60
2018-06-24T18:45:01.697Z,70.10
2018-06-24T18:47:29.785Z,69.60
2018-06-24T18:49:58.053Z,69.10
2018-06-24T18:52:27.200Z,70.30
2018-06-24T18:54:55.352Z,70.40
2018-06-24T18:57:23.411Z,69.30
2018-06-24T18:59:52.059Z,70.20
2018-06-24T19:02:22.252Z,70.10
2018-06-24T19:04:51.307Z,69.90
2018-06-24T19:07:20.101Z,69.70
2018-06-24T19:10:03.681Z,70.80
2018-06-24T19:12:33.229Z,70.00
2018-06-24T19:15:02.335Z,70.10
2018-06-24T19:17:30.416Z,69.30
2018-06-24T19:19:58.538Z,70.50
2018-06-24T19:22:26.486Z,70.70
2018-06-24T19:24:55.063Z,71.20
2018-06-24T19:29:51.330Z,73.00
2018-06-24T19:34:50.088Z,75.10
2018-06-24T19:37:21.503Z,75.30
2018-06-24T19:39:50.920Z,76.00
2018-06-24T19:42:19.759Z,75.30
2018-06-24T19:44:49.141Z,75.20
2018-06-24T19:47:18.131Z,76.20
2018-06-24T19:49:47.565Z,75.90
2018-06-24T19:52:18.220Z,76.30
2018-06-24T19:54:46.916Z,76.20
2018-06-24T19:57:15.395Z,76.70
2018-06-24T19:59:43.557Z,76.60
2018-06-24T20:02:14.044Z,76.10
2018-06-24T20:04:43.959Z,76.50
2018-06-24T20:09:41.846Z,77.00
2018-06-24T20:12:10.101Z,77.50
2018-06-24T20:14:38.061Z,76.80
2018-06-24T20:17:06.307Z,76.20
2018-06-24T20:19:35.302Z,76.20
2018-06-24T20:22:03.127Z,76.30
2018-06-24T20:24:31.122Z,76.40
2018-06-24T20:26:59.147Z,76.90
2018-06-24T20:29:27.059Z,77.40
2018-06-24T20:34:22.811Z,78.00
2018-06-24T20:36:56.540Z,78.00
2018-06-24T20:39:24.804Z,78.10
2018-06-24T20:41:54.215Z,78.10
2018-06-24T20:44:22.544Z,77.90
2018-06-24T20:46:50.624Z,77.80
2018-06-24T20:49:18.632Z,78.10
2018-06-24T20:51:46.805Z,78.00
2018-06-24T20:54:15.070Z,77.70
2018-06-24T20:56:43.107Z,77.90
2018-06-24T20:59:11.190Z,77.70
2018-06-24T21:01:40.085Z,77.80
2018-06-24T21:04:08.494Z,77.90
2018-06-24T21:06:36.474Z,78.10
2018-06-24T21:09:07.332Z,78.80
2018-06-24T21:11:35.308Z,78.20
2018-06-24T21:14:03.421Z,78.30
2018-06-24T21:16:31.481Z,78.60
2018-06-24T21:18:59.606Z,78.80
2018-06-24T21:21:27.554Z,78.50
2018-06-24T21:23:55.472Z,78.60
2018-06-24T21:26:23.991Z,77.90
2018-06-24T21:28:51.832Z,77.60
2018-06-24T21:31:19.785Z,76.70
2018-06-24T21:33:47.662Z,76.60
2018-06-24T21:36:15.966Z,76.90
2018-06-24T21:38:44.473Z,77.20
2018-06-24T21:41:12.456Z,78.00
2018-06-24T21:43:40.501Z,78.50
2018-06-24T21:46:08.423Z,77.00
2018-06-24T21:48:36.563Z,76.90
2018-06-24T21:51:04.595Z,76.80
2018-06-24T21:53:32.539Z,76.20
2018-06-24T21:56:00.563Z,76.30
2018-06-24T21:58:28.612Z,76.00
2018-06-24T22:00:56.698Z,75.50
2018-06-24T22:03:24.647Z,75.50
2018-06-24T22:05:52.588Z,75.00
2018-06-24T22:08:20.455Z,74.80
2018-06-24T22:10:49.297Z,74.60
2018-06-24T22:13:17.322Z,75.10
2018-06-24T22:15:45.352Z,74.70
2018-06-24T22:18:13.392Z,74.50
2018-06-24T22:20:41.383Z,74.40
2018-06-24T22:23:09.309Z,74.20
2018-06-24T22:25:37.471Z,74.40
2018-06-24T22:30:33.645Z,75.00
2018-06-24T22:33:01.684Z,74.90
2018-06-24T22:35:29.639Z,74.30
2018-06-24T22:37:57.704Z,74.90
2018-06-24T22:40:25.777Z,74.80
2018-06-24T22:42:53.676Z,74.60
2018-06-24T22:45:21.727Z,74.60
2018-06-24T22:47:49.701Z,74.50
2018-06-24T22:50:17.884Z,75.00
2018-06-24T22:52:45.778Z,74.80
2018-06-24T22:55:15.376Z,74.70
2018-06-24T22:57:43.456Z,75.10
2018-06-24T23:00:14.104Z,75.40
2018-06-24T23:02:42.724Z,75.60
2018-06-24T23:05:11.423Z,75.60
2018-06-24T23:07:40.689Z,75.00
2018-06-24T23:10:08.730Z,75.60
2018-06-24T23:12:36.721Z,75.80
2018-06-24T23:15:05.747Z,76.40
2018-06-24T23:17:33.718Z,76.70
2018-06-24T23:20:01.511Z,77.60
2018-06-24T23:22:29.443Z,78.00
2018-06-24T23:24:57.414Z,78.30
2018-06-24T23:27:25.310Z,79.00
2018-06-24T23:29:53.404Z,78.50
2018-06-24T23:32:21.421Z,78.50
2018-06-24T23:34:49.523Z,79.00
2018-06-24T23:37:17.495Z,78.90
2018-06-24T23:39:46.329Z,79.10
2018-06-24T23:42:14.347Z,79.20
2018-06-24T23:44:42.323Z,79.20
2018-06-24T23:47:10.274Z,79.40
2018-06-24T23:49:38.100Z,79.60
2018-06-24T23:52:06.165Z,79.90
2018-06-24T23:54:34.880Z,79.80
2018-06-24T23:57:02.880Z,79.90
2018-06-24T23:59:30.803Z,80.00
